| time (UTC) | temp F | wind direction | speed MPH | gust MPH | rain 1hr in | rain 24hr in | rain mn in | humidity % | barometer mb |
| 20260906052016 | 53 | 0 | 0.0 | 3.0 | 0.02 | 0.15 | 0.15 | 85 | 1015.5 |
| 20260906051533 | 53 | 0 | 0.0 | 9.0 | 0.01 | 0.14 | 0.14 | 84 | 1015.6 |
| 20260906051019 | 53 | 0 | 0.0 | 9.0 | 0.02 | 0.14 | 0.14 | 84 | 1015.5 |
| 20260906050516 | 53 | 169 | 0.0 | 4.0 | 0.01 | 0.13 | 0.13 | 84 | 1015.5 |
| 20260906050033 | 53 | 0 | 0.0 | 6.0 | 0.01 | 0.13 | 0.13 | 85 | 1015.7 |
| 20260906045520 | 52 | 0 | 0.0 | 6.0 | 0.02 | 0.13 | 0.13 | 85 | 1015.8 |
| 20260906045017 | 52 | 0 | 0.0 | 6.0 | 0.02 | 0.13 | 0.13 | 85 | 1015.9 |
| 20260906044540 | 52 | 0 | 0.0 | 6.0 | 0.03 | 0.13 | 0.13 | 85 | 1015.9 |
| 20260906044018 | 52 | 207 | 0.0 | 5.0 | 0.05 | 0.13 | 0.13 | 85 | 1016.0 |
| 20260906043522 | 52 | 0 | 0.0 | 5.0 | 0.08 | 0.13 | 0.13 | 85 | 1016.1 |
| 20260906043042 | 52 | 0 | 1.0 | 5.0 | 0.10 | 0.13 | 0.13 | 86 | 1016.3 |
| 20260906042516 | 52 | 0 | 0.0 | 6.0 | 0.11 | 0.13 | 0.13 | 86 | 1016.5 |
| 20260906042016 | 52 | 0 | 0.0 | 6.0 | 0.11 | 0.13 | 0.13 | 86 | 1016.5 |
| 20260906041537 | 52 | 0 | 0.0 | 0.0 | 0.12 | 0.13 | 0.13 | 86 | 1016.8 |
| 20260906041019 | 52 | 0 | 0.0 | 0.0 | 0.11 | 0.12 | 0.12 | 86 | 1016.8 |
| 20260906040521 | 52 | 0 | 0.0 | 0.0 | 0.12 | 0.12 | 0.12 | 86 | 1017.0 |
| 20260906040036 | 52 | 0 | 0.0 | 2.0 | 0.12 | 0.12 | 0.12 | 86 | 1017.0 |
| 20260906035515 | 52 | 0 | 0.0 | 2.0 | 0.11 | 0.11 | 0.11 | 86 | 1017.2 |
| 20260906035015 | 52 | 0 | 0.0 | 2.0 | 0.11 | 0.11 | 0.11 | 86 | 1017.2 |
| 20260906034536 | 52 | 0 | 0.0 | 3.0 | 0.10 | 0.10 | 0.10 | 85 | 1017.3 |
| 20260906034018 | 52 | 0 | 0.0 | 5.0 | 0.07 | 0.07 | 0.07 | 85 | 1017.4 |
| 20260906033518 | 52 | 0 | 0.0 | 5.0 | 0.05 | 0.05 | 0.05 | 85 | 1017.4 |
| 20260906033034 | 52 | 0 | 0.0 | 0.0 | 0.03 | 0.03 | 0.03 | 84 | 1017.6 |
| 20260906032518 | 52 | 0 | 0.0 | 0.0 | 0.02 | 0.02 | 0.02 | 84 | 1017.7 |
| 20260906032018 | 52 | 0 | 0.0 | 0.0 | 0.02 | 0.02 | 0.02 | 84 | 1017.6 |
| 20260906031544 | 53 | 0 | 0.0 | 0.0 | 0.01 | 0.01 | 0.01 | 84 | 1017.6 |
| 20260906031017 | 53 | 0 | 0.0 | 4.0 | 0.01 | 0.01 | 0.01 | 84 | 1017.8 |
| 20260906030520 | 53 | 0 | 0.0 | 4.0 | 0.00 | 0.00 | 0.00 | 84 | 1017.7 |
| 20260906030033 | 53 | 0 | 0.0 | 0.0 | 0.00 | 0.00 | 0.00 | 83 | 1017.7 |
| 20260906025517 | 53 | 0 | 0.0 | 0.0 | 0.00 | 0.00 | 0.00 | 83 | 1018.0 |
| 20260906025017 | 53 | 0 | 0.0 | 2.0 | 0.00 | 0.00 | 0.00 | 83 | 1018.2 |
| 20260906024535 | 53 | 0 | 0.0 | 2.0 | 0.00 | 0.00 | 0.00 | 82 | 1018.2 |
| 20260906024022 | 53 | 0 | 0.0 | 1.0 | 0.00 | 0.00 | 0.00 | 82 | 1018.5 |
| 20260906023516 | 53 | 0 | 0.0 | 1.0 | 0.00 | 0.00 | 0.00 | 82 | 1018.7 |
| 20260906023032 | 53 | 0 | 0.0 | 0.0 | 0.00 | 0.00 | 0.00 | 82 | 1018.6 |
| 20260906022518 | 53 | 0 | 0.0 | 0.0 | 0.00 | 0.00 | 0.00 | 81 | 1018.7 |
| 20260906022016 | 53 | 0 | 0.0 | 0.0 | 0.00 | 0.00 | 0.00 | 80 | 1018.8 |
| 20260906021534 | 53 | 0 | 0.0 | 0.0 | 0.00 | 0.00 | 0.00 | 80 | 1018.9 |
| 20260906021017 | 53 | 0 | 0.0 | 0.0 | 0.00 | 0.00 | 0.00 | 80 | 1018.8 |
| 20260906020516 | 53 | 0 | 0.0 | 1.0 | 0.00 | 0.00 | 0.00 | 80 | 1018.8 |
| 20260906020049 | 53 | 0 | 0.0 | 1.0 | 0.00 | 0.00 | 0.00 | 81 | 1018.9 |
| 20260906015522 | 52 | 0 | 0.0 | 0.0 | 0.00 | 0.00 | 0.00 | 81 | 1018.9 |
| 20260906015018 | 52 | 0 | 0.0 | 0.0 | 0.00 | 0.00 | 0.00 | 81 | 1018.8 |
| 20260906014537 | 52 | 0 | 0.0 | 0.0 | 0.00 | 0.00 | 0.00 | 81 | 1018.8 |
| 20260906014019 | 52 | 0 | 0.0 | 0.0 | 0.00 | 0.00 | 0.00 | 81 | 1018.9 |
| 20260906013516 | 52 | 0 | 0.0 | 0.0 | 0.00 | 0.00 | 0.00 | 81 | 1018.9 |
| 20260906013033 | 52 | 0 | 0.0 | 0.0 | 0.00 | 0.00 | 0.00 | 81 | 1018.9 |
| 20260906012515 | 52 | 0 | 0.0 | 0.0 | 0.00 | 0.00 | 0.00 | 80 | 1018.8 |
| 20260906012015 | 52 | 0 | 0.0 | 0.0 | 0.00 | 0.00 | 0.00 | 80 | 1018.8 |
| 20260906011534 | 52 | 0 | 0.0 | 0.0 | 0.00 | 0.00 | 0.00 | 80 | 1018.8 |
| 20260906011020 | 52 | 0 | 0.0 | 0.0 | 0.00 | 0.00 | 0.00 | 80 | 1018.8 |
| 20260906010516 | 52 | 0 | 0.0 | 0.0 | 0.00 | 0.00 | 0.00 | 80 | 1019.1 |
| 20260906010033 | 52 | 0 | 0.0 | 0.0 | 0.00 | 0.00 | 0.00 | 80 | 1019.2 |
| 20260906005518 | 52 | 0 | 0.0 | 0.0 | 0.00 | 0.00 | 0.00 | 80 | 1019.5 |
| 20260906005016 | 52 | 0 | 0.0 | 0.0 | 0.00 | 0.00 | 0.00 | 80 | 1019.6 |
| 20260906004531 | 52 | 0 | 0.0 | 0.0 | 0.00 | 0.00 | 0.00 | 80 | 1019.7 |
| 20260906004016 | 52 | 0 | 0.0 | 0.0 | 0.00 | 0.00 | 0.00 | 81 | 1019.9 |
| 20260906003518 | 52 | 0 | 0.0 | 1.0 | 0.00 | 0.00 | 0.00 | 81 | 1020.0 |
| 20260906003033 | 51 | 0 | 0.0 | 1.0 | 0.00 | 0.00 | 0.00 | 81 | 1019.9 |
| 20260906002515 | 51 | 0 | 0.0 | 0.0 | 0.00 | 0.00 | 0.00 | 82 | 1019.9 |
| 20260906002018 | 50 | 0 | 0.0 | 0.0 | 0.00 | 0.00 | 0.00 | 81 | 1019.9 |
| 20260906001534 | 50 | 0 | 0.0 | 0.0 | 0.00 | 0.00 | 0.00 | 81 | 1019.8 |
| 20260906001017 | 50 | 0 | 0.0 | 0.0 | 0.00 | 0.00 | 0.00 | 81 | 1019.8 |
| 20260906000516 | 51 | 0 | 0.0 | 0.0 | 0.00 | 0.00 | 0.00 | 81 | 1020.0 |
| 20260906000032 | 51 | 0 | 0.0 | 0.0 | 0.00 | 0.00 | 0.00 | 81 | 1020.0 |
| 20260905235516 | 51 | 0 | 0.0 | 0.0 | 0.00 | 0.00 | 0.00 | 81 | 1020.0 |
| 20260905235018 | 51 | 0 | 0.0 | 0.0 | 0.00 | 0.00 | 0.00 | 81 | 1020.1 |
| 20260905234531 | 51 | 0 | 0.0 | 0.0 | 0.00 | 0.00 | 0.00 | 81 | 1020.2 |
| 20260905234022 | 51 | 0 | 0.0 | 0.0 | 0.00 | 0.00 | 0.00 | 81 | 1020.3 |
| 20260905233516 | 51 | 0 | 0.0 | 0.0 | 0.00 | 0.00 | 0.00 | 80 | 1020.4 |
| 20260905233038 | 51 | 0 | 0.0 | 0.0 | 0.00 | 0.00 | 0.00 | 80 | 1020.4 |
| 20260905232515 | 51 | 0 | 0.0 | 0.0 | 0.00 | 0.00 | 0.00 | 80 | 1020.5 |
| 20260905232016 | 51 | 0 | 0.0 | 0.0 | 0.00 | 0.00 | 0.00 | 80 | 1020.5 |
| 20260905231534 | 51 | 0 | 0.0 | 0.0 | 0.00 | 0.00 | 0.00 | 80 | 1020.6 |
| 20260905231017 | 51 | 0 | 0.0 | 0.0 | 0.00 | 0.00 | 0.00 | 80 | 1020.6 |
| 20260905230519 | 51 | 0 | 0.0 | 0.0 | 0.00 | 0.00 | 0.00 | 79 | 1020.5 |
| 20260905230032 | 52 | 0 | 0.0 | 0.0 | 0.00 | 0.00 | 0.00 | 79 | 1020.4 |
| 20260905225516 | 52 | 0 | 0.0 | 0.0 | 0.00 | 0.00 | 0.00 | 78 | 1020.5 |
| 20260905225018 | 52 | 0 | 0.0 | 0.0 | 0.00 | 0.00 | 0.00 | 79 | 1020.6 |
| 20260905224534 | 52 | 0 | 0.0 | 0.0 | 0.00 | 0.00 | 0.00 | 78 | 1020.8 |
| 20260905224018 | 52 | 0 | 0.0 | 0.0 | 0.00 | 0.00 | 0.00 | 78 | 1020.7 |
| 20260905223518 | 52 | 0 | 0.0 | 0.0 | 0.00 | 0.00 | 0.00 | 78 | 1020.7 |
| 20260905223038 | 52 | 0 | 0.0 | 0.0 | 0.00 | 0.00 | 0.00 | 78 | 1020.8 |
| 20260905222517 | 52 | 0 | 0.0 | 0.0 | 0.00 | 0.00 | 0.00 | 77 | 1020.7 |
| 20260905222022 | 52 | 0 | 0.0 | 0.0 | 0.00 | 0.00 | 0.00 | 78 | 1020.8 |
| 20260905221544 | 52 | 0 | 0.0 | 0.0 | 0.00 | 0.00 | 0.00 | 78 | 1020.7 |
| 20260905221016 | 52 | 0 | 0.0 | 0.0 | 0.00 | 0.00 | 0.00 | 78 | 1020.7 |
| 20260905220516 | 52 | 0 | 0.0 | 0.0 | 0.00 | 0.00 | 0.00 | 78 | 1020.9 |
| 20260905220034 | 52 | 0 | 0.0 | 0.0 | 0.00 | 0.00 | 0.00 | 77 | 1021.0 |
| 20260905215522 | 52 | 0 | 0.0 | 0.0 | 0.00 | 0.00 | 0.00 | 78 | 1021.1 |
| 20260905215017 | 52 | 0 | 0.0 | 0.0 | 0.00 | 0.00 | 0.00 | 78 | 1021.0 |
| 20260905214535 | 52 | 0 | 0.0 | 0.0 | 0.00 | 0.00 | 0.00 | 78 | 1021.0 |
| 20260905214016 | 52 | 0 | 0.0 | 0.0 | 0.00 | 0.00 | 0.00 | 77 | 1020.9 |
| 20260905213516 | 52 | 0 | 0.0 | 0.0 | 0.00 | 0.00 | 0.00 | 77 | 1020.8 |
| 20260905213037 | 52 | 0 | 0.0 | 0.0 | 0.00 | 0.00 | 0.00 | 77 | 1020.8 |
| 20260905212516 | 52 | 0 | 0.0 | 0.0 | 0.00 | 0.00 | 0.00 | 77 | 1020.7 |
| 20260905212026 | 52 | 0 | 0.0 | 0.0 | 0.00 | 0.00 | 0.00 | 77 | 1020.9 |
| 20260905211543 | 52 | 0 | 0.0 | 0.0 | 0.00 | 0.00 | 0.00 | 77 | 1021.0 |
| 20260905211017 | 52 | 0 | 0.0 | 0.0 | 0.00 | 0.00 | 0.00 | 77 | 1021.0 |
| 20260905210518 | 52 | 0 | 0.0 | 0.0 | 0.00 | 0.00 | 0.00 | 77 | 1020.8 |
| 20260905210048 | 52 | 0 | 0.0 | 0.0 | 0.00 | 0.00 | 0.00 | 77 | 1020.9 |
| 20260905205517 | 53 | 0 | 0.0 | 0.0 | 0.00 | 0.00 | 0.00 | 76 | 1020.9 |
| 20260905205016 | 53 | 0 | 0.0 | 0.0 | 0.00 | 0.00 | 0.00 | 77 | 1020.9 |
| 20260905204535 | 53 | 0 | 0.0 | 0.0 | 0.00 | 0.00 | 0.00 | 76 | 1020.9 |
| 20260905204015 | 53 | 0 | 0.0 | 0.0 | 0.00 | 0.00 | 0.00 | 76 | 1020.9 |
| 20260905203517 | 53 | 0 | 0.0 | 0.0 | 0.00 | 0.00 | 0.00 | 76 | 1020.8 |
| 20260905203037 | 53 | 0 | 0.0 | 0.0 | 0.00 | 0.00 | 0.00 | 76 | 1020.9 |
| 20260905202518 | 53 | 0 | 0.0 | 0.0 | 0.00 | 0.00 | 0.00 | 75 | 1021.1 |
| 20260905202016 | 53 | 0 | 0.0 | 0.0 | 0.00 | 0.00 | 0.00 | 75 | 1021.0 |
| 20260905201537 | 53 | 0 | 0.0 | 0.0 | 0.00 | 0.00 | 0.00 | 75 | 1021.0 |
| 20260905201018 | 54 | 0 | 0.0 | 0.0 | 0.00 | 0.00 | 0.00 | 74 | 1021.1 |
| 20260905200518 | 54 | 0 | 0.0 | 0.0 | 0.00 | 0.00 | 0.00 | 74 | 1021.0 |
| 20260905200051 | 54 | 0 | 0.0 | 0.0 | 0.00 | 0.00 | 0.00 | 74 | 1020.8 |
| 20260905195518 | 54 | 0 | 0.0 | 0.0 | 0.00 | 0.00 | 0.00 | 74 | 1021.0 |
| 20260905195021 | 54 | 0 | 0.0 | 0.0 | 0.00 | 0.00 | 0.00 | 73 | 1020.9 |
| 20260905194537 | 55 | 0 | 0.0 | 0.0 | 0.00 | 0.00 | 0.00 | 73 | 1020.9 |
| 20260905194018 | 55 | 0 | 0.0 | 0.0 | 0.00 | 0.00 | 0.00 | 72 | 1020.9 |
| 20260905193518 | 56 | 0 | 0.0 | 0.0 | 0.00 | 0.00 | 0.00 | 72 | 1020.9 |
| 20260905193031 | 56 | 0 | 0.0 | 0.0 | 0.00 | 0.00 | 0.00 | 71 | 1020.9 |
| 20260905192516 | 56 | 0 | 0.0 | 0.0 | 0.00 | 0.00 | 0.00 | 71 | 1020.9 |
| 20260905192019 | 57 | 0 | 0.0 | 0.0 | 0.00 | 0.00 | 0.00 | 70 | 1020.8 |
| 20260905191536 | 57 | 0 | 0.0 | 0.0 | 0.00 | 0.00 | 0.00 | 70 | 1020.8 |
| 20260905191018 | 57 | 0 | 0.0 | 0.0 | 0.00 | 0.00 | 0.00 | 70 | 1020.7 |
| 20260905190517 | 57 | 0 | 0.0 | 0.0 | 0.00 | 0.00 | 0.00 | 70 | 1020.8 |
| 20260905190035 | 58 | 0 | 0.0 | 0.0 | 0.00 | 0.00 | 0.00 | 69 | 1020.8 |
| 20260905185516 | 58 | 0 | 0.0 | 0.0 | 0.00 | 0.00 | 0.00 | 68 | 1020.6 |
| 20260905185015 | 58 | 0 | 0.0 | 0.0 | 0.00 | 0.00 | 0.00 | 68 | 1020.5 |
| 20260905184536 | 58 | 0 | 0.0 | 7.0 | 0.00 | 0.00 | 0.00 | 68 | 1020.4 |
| 20260905184019 | 58 | 0 | 0.0 | 7.0 | 0.00 | 0.00 | 0.00 | 68 | 1020.3 |
| 20260905183519 | 58 | 0 | 0.0 | 4.0 | 0.00 | 0.00 | 0.00 | 67 | 1020.3 |
| 20260905183033 | 58 | 0 | 0.0 | 4.0 | 0.00 | 0.00 | 0.00 | 67 | 1020.1 |
| 20260905182516 | 59 | 0 | 0.0 | 3.0 | 0.00 | 0.00 | 0.00 | 67 | 1020.1 |
| 20260905182019 | 59 | 0 | 0.0 | 3.0 | 0.00 | 0.00 | 0.00 | 68 | 1020.2 |
| 20260905181537 | 59 | 0 | 0.0 | 0.0 | 0.00 | 0.00 | 0.00 | 67 | 1020.2 |
| 20260905181016 | 59 | 0 | 0.0 | 0.0 | 0.00 | 0.00 | 0.00 | 67 | 1020.2 |
| 20260905180519 | 59 | 0 | 0.0 | 5.0 | 0.00 | 0.00 | 0.00 | 66 | 1020.1 |
| 20260905180037 | 59 | 0 | 0.0 | 6.0 | 0.00 | 0.00 | 0.00 | 66 | 1019.9 |
| 20260905175517 | 60 | 0 | 1.0 | 6.0 | 0.00 | 0.00 | 0.00 | 65 | 1020.0 |
| 20260905175020 | 60 | 0 | 0.0 | 8.0 | 0.00 | 0.00 | 0.00 | 65 | 1019.9 |
| 20260905174536 | 60 | 248 | 0.0 | 8.0 | 0.00 | 0.00 | 0.00 | 65 | 1019.9 |
| 20260905174016 | 60 | 0 | 0.0 | 3.0 | 0.00 | 0.00 | 0.00 | 66 | 1019.8 |
| 20260905173519 | 59 | 0 | 0.0 | 2.0 | 0.00 | 0.00 | 0.00 | 67 | 1020.0 |
| 20260905173037 | 59 | 0 | 0.0 | 9.0 | 0.00 | 0.00 | 0.00 | 66 | 1019.9 |
| 20260905172516 | 59 | 0 | 0.0 | 9.0 | 0.00 | 0.00 | 0.00 | 66 | 1019.9 |
| 20260905172016 | 59 | 0 | 0.0 | 7.0 | 0.00 | 0.00 | 0.00 | 66 | 1019.7 |
| 20260905171554 | 59 | 291 | 0.0 | 7.0 | 0.00 | 0.00 | 0.00 | 66 | 1019.5 |
| 20260905171021 | 59 | 0 | 1.0 | 7.0 | 0.00 | 0.00 | 0.00 | 66 | 1019.5 |
| 20260905170516 | 60 | 287 | 0.0 | 6.0 | 0.00 | 0.00 | 0.00 | 66 | 1019.5 |
| 20260905170036 | 60 | 0 | 0.0 | 9.0 | 0.00 | 0.00 | 0.00 | 66 | 1019.6 |
| 20260905165517 | 60 | 257 | 1.0 | 9.0 | 0.00 | 0.00 | 0.00 | 65 | 1019.5 |
| 20260905165019 | 60 | 274 | 0.0 | 9.0 | 0.00 | 0.00 | 0.00 | 66 | 1019.4 |
| 20260905164534 | 60 | 281 | 0.0 | 7.0 | 0.00 | 0.00 | 0.00 | 65 | 1019.5 |
| 20260905164017 | 60 | 0 | 0.0 | 7.0 | 0.00 | 0.00 | 0.00 | 64 | 1019.3 |
| 20260905163516 | 60 | 0 | 0.0 | 9.0 | 0.00 | 0.00 | 0.00 | 65 | 1019.5 |
| 20260905163032 | 60 | 267 | 1.0 | 9.0 | 0.00 | 0.00 | 0.00 | 64 | 1019.5 |
| 20260905162518 | 61 | 0 | 0.0 | 9.0 | 0.00 | 0.00 | 0.00 | 64 | 1019.4 |
| 20260905162018 | 61 | 276 | 1.0 | 9.0 | 0.00 | 0.00 | 0.00 | 63 | 1019.5 |
| 20260905161540 | 61 | 294 | 0.0 | 9.0 | 0.00 | 0.00 | 0.00 | 64 | 1019.4 |
| 20260905161020 | 61 | 0 | 0.0 | 6.0 | 0.00 | 0.00 | 0.00 | 63 | 1019.4 |
| 20260905160517 | 61 | 281 | 0.0 | 10.0 | 0.00 | 0.00 | 0.00 | 64 | 1019.3 |
| 20260905160044 | 61 | 0 | 0.0 | 10.0 | 0.00 | 0.00 | 0.00 | 64 | 1019.2 |
| 20260905155518 | 61 | 292 | 3.0 | 10.0 | 0.00 | 0.00 | 0.00 | 63 | 1019.1 |
| 20260905155018 | 61 | 0 | 0.0 | 9.0 | 0.00 | 0.00 | 0.00 | 64 | 1019.1 |
| 20260905154549 | 61 | 276 | 2.0 | 9.0 | 0.00 | 0.00 | 0.00 | 63 | 1019.0 |
| 20260905154016 | 62 | 0 | 0.0 | 10.0 | 0.00 | 0.00 | 0.00 | 63 | 1018.9 |
| 20260905153519 | 62 | 0 | 0.0 | 10.0 | 0.00 | 0.00 | 0.00 | 62 | 1018.9 |
| 20260905153034 | 62 | 0 | 1.0 | 11.0 | 0.00 | 0.00 | 0.00 | 61 | 1019.0 |
| 20260905152518 | 62 | 277 | 1.0 | 11.0 | 0.00 | 0.00 | 0.00 | 61 | 1018.9 |
| 20260905152018 | 63 | 292 | 1.0 | 11.0 | 0.00 | 0.00 | 0.00 | 61 | 1018.9 |
| 20260905151537 | 63 | 0 | 0.0 | 10.0 | 0.00 | 0.00 | 0.00 | 61 | 1018.8 |
| 20260905151019 | 63 | 0 | 1.0 | 12.0 | 0.00 | 0.00 | 0.00 | 60 | 1018.7 |
| 20260905150520 | 63 | 286 | 2.0 | 12.0 | 0.00 | 0.00 | 0.00 | 59 | 1018.9 |
| 20260905150033 | 63 | 0 | 1.0 | 10.0 | 0.00 | 0.00 | 0.00 | 59 | 1018.8 |
| 20260905145519 | 63 | 0 | 1.0 | 10.0 | 0.00 | 0.00 | 0.00 | 57 | 1018.8 |
| 20260905145021 | 64 | 236 | 0.0 | 12.0 | 0.00 | 0.00 | 0.00 | 56 | 1018.8 |
| 20260905144543 | 64 | 0 | 0.0 | 12.0 | 0.00 | 0.00 | 0.00 | 58 | 1018.8 |
| 20260905144015 | 64 | 0 | 2.0 | 12.0 | 0.00 | 0.00 | 0.00 | 56 | 1018.9 |
| 20260905143518 | 63 | 288 | 2.0 | 12.0 | 0.00 | 0.00 | 0.00 | 57 | 1018.9 |
| 20260905143034 | 64 | 298 | 1.0 | 11.0 | 0.00 | 0.00 | 0.00 | 54 | 1018.7 |
| 20260905142516 | 65 | 0 | 1.0 | 17.0 | 0.00 | 0.00 | 0.00 | 52 | 1018.7 |
| 20260905142019 | 65 | 281 | 4.0 | 17.0 | 0.00 | 0.00 | 0.00 | 52 | 1018.7 |
| 20260905141534 | 65 | 299 | 2.0 | 17.0 | 0.00 | 0.00 | 0.00 | 52 | 1018.6 |
| 20260905141018 | 64 | 0 | 2.0 | 16.0 | 0.00 | 0.00 | 0.00 | 53 | 1018.5 |
| 20260905140518 | 64 | 0 | 1.0 | 15.0 | 0.00 | 0.00 | 0.00 | 53 | 1018.5 |
| 20260905140038 | 64 | 317 | 1.0 | 14.0 | 0.00 | 0.00 | 0.00 | 53 | 1018.5 |
| 20260905135520 | 63 | 341 | 2.0 | 12.0 | 0.00 | 0.00 | 0.00 | 54 | 1018.5 |
| 20260905135019 | 62 | 0 | 3.0 | 14.0 | 0.00 | 0.00 | 0.00 | 55 | 1018.5 |
| 20260905134534 | 62 | 288 | 2.0 | 14.0 | 0.00 | 0.00 | 0.00 | 53 | 1018.5 |
| 20260905134016 | 63 | 0 | 2.0 | 12.0 | 0.00 | 0.00 | 0.00 | 52 | 1018.5 |
| 20260905133519 | 63 | 284 | 2.0 | 12.0 | 0.00 | 0.00 | 0.00 | 53 | 1018.5 |
| 20260905133034 | 63 | 0 | 0.0 | 10.0 | 0.00 | 0.00 | 0.00 | 53 | 1018.4 |
| 20260905132516 | 63 | 0 | 3.0 | 12.0 | 0.00 | 0.00 | 0.00 | 52 | 1018.3 |
| 20260905132019 | 64 | 286 | 2.0 | 16.0 | 0.00 | 0.00 | 0.00 | 50 | 1018.3 |
| 20260905131533 | 64 | 266 | 3.0 | 16.0 | 0.00 | 0.00 | 0.00 | 50 | 1018.4 |
| 20260905131016 | 65 | 273 | 2.0 | 11.0 | 0.00 | 0.00 | 0.00 | 50 | 1018.3 |
| 20260905130520 | 65 | 0 | 2.0 | 15.0 | 0.00 | 0.00 | 0.00 | 49 | 1018.1 |
| 20260905130033 | 66 | 294 | 2.0 | 15.0 | 0.00 | 0.00 | 0.00 | 50 | 1017.9 |
| 20260905125516 | 66 | 265 | 6.0 | 15.0 | 0.00 | 0.00 | 0.00 | 47 | 1017.9 |
| 20260905125016 | 67 | 290 | 4.0 | 15.0 | 0.00 | 0.00 | 0.00 | 48 | 1017.9 |
| 20260905124543 | 66 | 269 | 3.0 | 12.0 | 0.00 | 0.00 | 0.00 | 49 | 1018.1 |
| 20260905124021 | 66 | 296 | 0.0 | 14.0 | 0.00 | 0.00 | 0.00 | 51 | 1017.9 |
| 20260905123517 | 66 | 343 | 2.0 | 15.0 | 0.00 | 0.00 | 0.00 | 51 | 1018.1 |
| 20260905123035 | 66 | 324 | 4.0 | 15.0 | 0.00 | 0.00 | 0.00 | 50 | 1017.9 |
| 20260905122520 | 65 | 276 | 2.0 | 13.0 | 0.00 | 0.00 | 0.00 | 50 | 1018.0 |
| 20260905122016 | 65 | 360 | 2.0 | 13.0 | 0.00 | 0.00 | 0.00 | 51 | 1018.0 |
| 20260905121531 | 65 | 0 | 0.0 | 9.0 | 0.00 | 0.00 | 0.00 | 54 | 1017.8 |
| 20260905121016 | 64 | 0 | 0.0 | 10.0 | 0.00 | 0.00 | 0.00 | 54 | 1017.7 |
| 20260905120518 | 64 | 0 | 0.0 | 17.0 | 0.00 | 0.00 | 0.00 | 52 | 1017.7 |
| 20260905120033 | 64 | 0 | 0.0 | 17.0 | 0.00 | 0.00 | 0.00 | 55 | 1017.5 |
| 20260905115520 | 64 | 294 | 2.0 | 14.0 | 0.00 | 0.00 | 0.00 | 53 | 1017.3 |
| 20260905115019 | 63 | 0 | 0.0 | 12.0 | 0.00 | 0.00 | 0.00 | 54 | 1017.2 |
| 20260905114534 | 63 | 0 | 1.0 | 12.0 | 0.00 | 0.00 | 0.00 | 53 | 1017.1 |
| 20260905114017 | 62 | 309 | 2.0 | 15.0 | 0.00 | 0.00 | 0.00 | 52 | 1017.2 |
| 20260905113522 | 63 | 292 | 3.0 | 15.0 | 0.00 | 0.00 | 0.00 | 51 | 1017.1 |
| 20260905113036 | 63 | 283 | 3.0 | 14.0 | 0.00 | 0.00 | 0.00 | 51 | 1016.8 |
| 20260905112518 | 63 | 290 | 2.0 | 13.0 | 0.00 | 0.00 | 0.00 | 51 | 1016.7 |
| 20260905112016 | 62 | 293 | 1.0 | 16.0 | 0.00 | 0.00 | 0.00 | 54 | 1016.6 |
| 20260905111534 | 61 | 0 | 1.0 | 16.0 | 0.00 | 0.00 | 0.00 | 56 | 1016.6 |
| 20260905111018 | 61 | 0 | 3.0 | 23.0 | 0.00 | 0.00 | 0.00 | 55 | 1016.6 |
| 20260905110520 | 61 | 282 | 2.0 | 23.0 | 0.00 | 0.00 | 0.00 | 54 | 1016.6 |
| 20260905110033 | 62 | 315 | 5.0 | 23.0 | 0.00 | 0.00 | 0.00 | 53 | 1016.4 |
| 20260905105518 | 62 | 309 | 5.0 | 18.0 | 0.00 | 0.00 | 0.00 | 56 | 1016.3 |
| 20260905105020 | 61 | 269 | 4.0 | 18.0 | 0.00 | 0.00 | 0.00 | 55 | 1016.2 |
| 20260905104541 | 61 | 0 | 2.0 | 17.0 | 0.00 | 0.00 | 0.00 | 57 | 1016.2 |
| 20260905104020 | 61 | 284 | 5.0 | 17.0 | 0.00 | 0.00 | 0.00 | 57 | 1016.1 |
| 20260905103515 | 61 | 360 | 4.0 | 15.0 | 0.00 | 0.00 | 0.00 | 56 | 1016.0 |
| 20260905103035 | 61 | 283 | 3.0 | 15.0 | 0.00 | 0.00 | 0.00 | 58 | 1015.9 |
| 20260905102519 | 61 | 298 | 5.0 | 18.0 | 0.00 | 0.00 | 0.00 | 56 | 1015.8 |
| 20260905102018 | 61 | 311 | 5.0 | 18.0 | 0.00 | 0.00 | 0.00 | 58 | 1015.8 |
| 20260905101539 | 61 | 294 | 3.0 | 13.0 | 0.00 | 0.00 | 0.00 | 57 | 1015.7 |
| 20260905101018 | 61 | 0 | 3.0 | 12.0 | 0.00 | 0.00 | 0.00 | 57 | 1015.6 |
| 20260905100516 | 61 | 314 | 3.0 | 17.0 | 0.00 | 0.00 | 0.00 | 57 | 1015.5 |
| 20260905100036 | 61 | 277 | 4.0 | 18.0 | 0.00 | 0.00 | 0.00 | 57 | 1015.5 |
| 20260905095517 | 61 | 225 | 4.0 | 18.0 | 0.00 | 0.00 | 0.00 | 58 | 1015.3 |
| 20260905095018 | 60 | 346 | 5.0 | 19.0 | 0.00 | 0.00 | 0.00 | 57 | 1015.3 |
| 20260905094547 | 60 | 267 | 6.0 | 19.0 | 0.00 | 0.00 | 0.00 | 57 | 1015.2 |
| 20260905094015 | 60 | 288 | 3.0 | 16.0 | 0.00 | 0.00 | 0.00 | 59 | 1015.4 |
| 20260905093515 | 60 | 333 | 5.0 | 20.0 | 0.00 | 0.00 | 0.00 | 57 | 1015.3 |
| 20260905093042 | 59 | 276 | 6.0 | 20.0 | 0.00 | 0.00 | 0.00 | 59 | 1015.3 |
| 20260905092519 | 59 | 298 | 9.0 | 20.0 | 0.00 | 0.00 | 0.00 | 58 | 1015.3 |
| 20260905092016 | 60 | 277 | 10.0 | 20.0 | 0.00 | 0.00 | 0.00 | 57 | 1015.1 |
| 20260905091535 | 60 | 317 | 8.0 | 17.0 | 0.00 | 0.00 | 0.00 | 58 | 1015.3 |
| 20260905091017 | 59 | 276 | 6.0 | 17.0 | 0.00 | 0.00 | 0.00 | 59 | 1015.1 |
| 20260905090519 | 59 | 304 | 3.0 | 19.0 | 0.00 | 0.00 | 0.00 | 61 | 1015.0 |
| 20260905090034 | 59 | 0 | 5.0 | 19.0 | 0.00 | 0.00 | 0.00 | 61 | 1014.8 |
| 20260905085517 | 58 | 17 | 3.0 | 19.0 | 0.00 | 0.00 | 0.00 | 63 | 1014.8 |
| 20260905085021 | 58 | 294 | 5.0 | 23.0 | 0.00 | 0.00 | 0.00 | 63 | 1014.7 |
| 20260905084540 | 57 | 0 | 4.0 | 23.0 | 0.00 | 0.00 | 0.00 | 65 | 1014.6 |
| 20260905084015 | 57 | 0 | 6.0 | 22.0 | 0.00 | 0.00 | 0.00 | 64 | 1014.6 |
| 20260905083515 | 57 | 280 | 8.0 | 19.0 | 0.00 | 0.00 | 0.00 | 64 | 1014.3 |
| 20260905083031 | 56 | 275 | 7.0 | 18.0 | 0.00 | 0.00 | 0.00 | 65 | 1014.2 |
| 20260905082516 | 56 | 279 | 3.0 | 16.0 | 0.00 | 0.00 | 0.00 | 67 | 1014.4 |
| 20260905082019 | 55 | 0 | 7.0 | 16.0 | 0.00 | 0.00 | 0.00 | 66 | 1014.2 |
| 20260905081534 | 55 | 288 | 4.0 | 16.0 | 0.00 | 0.00 | 0.00 | 66 | 1014.2 |
| 20260905081020 | 56 | 311 | 6.0 | 16.0 | 0.00 | 0.00 | 0.00 | 65 | 1014.2 |
| 20260905080520 | 56 | 284 | 5.0 | 21.0 | 0.00 | 0.00 | 0.00 | 64 | 1014.1 |
| 20260905080050 | 56 | 0 | 7.0 | 21.0 | 0.00 | 0.00 | 0.00 | 63 | 1013.9 |
| 20260905075517 | 56 | 24 | 9.0 | 21.0 | 0.00 | 0.00 | 0.00 | 63 | 1013.8 |
| 20260905075017 | 56 | 290 | 3.0 | 19.0 | 0.00 | 0.00 | 0.00 | 64 | 1013.8 |
| 20260905074533 | 56 | 290 | 3.0 | 14.0 | 0.00 | 0.00 | 0.00 | 65 | 1013.6 |
| 20260905074017 | 55 | 305 | 5.0 | 14.0 | 0.00 | 0.00 | 0.00 | 64 | 1013.5 |
| 20260905073517 | 55 | 285 | 4.0 | 13.0 | 0.00 | 0.00 | 0.00 | 65 | 1013.4 |
| 20260905073040 | 55 | 309 | 7.0 | 17.0 | 0.00 | 0.00 | 0.00 | 65 | 1013.3 |
| 20260905072516 | 55 | 295 | 7.0 | 17.0 | 0.00 | 0.00 | 0.00 | 65 | 1013.2 |
| 20260905072016 | 55 | 292 | 6.0 | 17.0 | 0.00 | 0.00 | 0.00 | 65 | 1013.3 |
| 20260905071533 | 54 | 289 | 7.0 | 17.0 | 0.00 | 0.00 | 0.00 | 65 | 1013.2 |
| 20260905071016 | 54 | 280 | 6.0 | 18.0 | 0.00 | 0.00 | 0.00 | 65 | 1013.1 |
| 20260905070519 | 54 | 292 | 4.0 | 18.0 | 0.00 | 0.00 | 0.00 | 65 | 1013.0 |
| 20260905070043 | 54 | 291 | 2.0 | 11.0 | 0.00 | 0.00 | 0.00 | 66 | 1013.0 |
| 20260905065519 | 54 | 284 | 5.0 | 17.0 | 0.00 | 0.00 | 0.00 | 66 | 1012.8 |
| 20260905065015 | 53 | 0 | 5.0 | 17.0 | 0.00 | 0.00 | 0.00 | 66 | 1012.8 |
| 20260905064532 | 53 | 299 | 5.0 | 17.0 | 0.00 | 0.00 | 0.00 | 66 | 1012.7 |
| 20260905064016 | 53 | 285 | 5.0 | 15.0 | 0.00 | 0.00 | 0.00 | 67 | 1012.5 |
| 20260905063520 | 53 | 293 | 8.0 | 17.0 | 0.00 | 0.00 | 0.00 | 67 | 1012.3 |
| 20260905063033 | 52 | 273 | 8.0 | 19.0 | 0.00 | 0.00 | 0.00 | 67 | 1012.2 |
| 20260905062513 | 52 | 288 | 8.0 | 19.0 | 0.00 | 0.00 | 0.00 | 68 | 1012.0 |
| 20260905062018 | 52 | 272 | 9.0 | 22.0 | 0.00 | 0.00 | 0.00 | 69 | 1011.9 |
| 20260905061550 | 51 | 315 | 11.0 | 22.0 | 0.00 | 0.00 | 0.00 | 69 | 1011.7 |
| 20260905061019 | 51 | 283 | 8.0 | 18.0 | 0.00 | 0.00 | 0.00 | 70 | 1011.8 |
| 20260905060515 | 51 | 290 | 8.0 | 21.0 | 0.00 | 0.00 | 0.00 | 70 | 1011.9 |
| 20260905060033 | 51 | 297 | 9.0 | 21.0 | 0.00 | 0.00 | 0.00 | 71 | 1011.7 |
| 20260905055516 | 51 | 246 | 8.0 | 21.0 | 0.00 | 0.00 | 0.00 | 71 | 1011.7 |
| 20260905055018 | 51 | 270 | 8.0 | 16.0 | 0.00 | 0.00 | 0.00 | 71 | 1011.6 |
| 20260905054531 | 51 | 289 | 7.0 | 18.0 | 0.00 | 0.00 | 0.00 | 72 | 1011.6 |
| 20260905054015 | 51 | 319 | 6.0 | 18.0 | 0.00 | 0.00 | 0.00 | 72 | 1011.5 |
| 20260905053517 | 51 | 268 | 6.0 | 18.0 | 0.00 | 0.00 | 0.00 | 72 | 1011.4 |
| 20260905053031 | 51 | 0 | 5.0 | 17.0 | 0.00 | 0.00 | 0.00 | 72 | 1011.4 |
| 20260905052517 | 51 | 271 | 10.0 | 17.0 | 0.00 | 0.00 | 0.00 | 72 | 1011.2 |